createdAt,value
2023-05-24T00:00:13.287Z,17.71
2023-05-24T00:02:44.054Z,17.66
2023-05-24T00:05:11.435Z,17.66
2023-05-24T00:07:38.523Z,17.69
2023-05-24T00:10:06.397Z,17.69
2023-05-24T00:12:34.297Z,17.71
2023-05-24T00:15:01.223Z,17.73
2023-05-24T00:17:31.392Z,17.73
2023-05-24T00:19:58.300Z,17.70
2023-05-24T00:22:25.274Z,17.63
2023-05-24T00:24:52.492Z,17.56
2023-05-24T00:27:19.704Z,17.49
2023-05-24T00:29:46.686Z,17.45
2023-05-24T00:32:13.724Z,17.40
2023-05-24T00:34:40.728Z,17.40
2023-05-24T00:37:07.733Z,17.44
2023-05-24T00:39:34.621Z,17.37
2023-05-24T00:42:02.218Z,17.30
2023-05-24T00:44:29.701Z,17.27
2023-05-24T00:46:56.668Z,17.29
2023-05-24T00:49:24.153Z,17.29
2023-05-24T00:51:52.981Z,17.30
2023-05-24T00:54:20.882Z,17.25
2023-05-24T00:56:49.279Z,17.22
2023-05-24T00:59:16.265Z,17.21
2023-05-24T01:01:46.993Z,17.19
2023-05-24T01:04:14.913Z,17.19
2023-05-24T01:06:59.360Z,17.03
2023-05-24T01:09:46.012Z,16.97
2023-05-24T01:12:22.641Z,16.95
2023-05-24T01:15:05.157Z,17.01
2023-05-24T01:18:07.941Z,16.97
2023-05-24T01:20:38.833Z,17.05
2023-05-24T01:23:15.014Z,17.08
2023-05-24T01:26:29.318Z,17.12
2023-05-24T01:28:56.626Z,17.20
2023-05-24T01:31:24.063Z,17.18
2023-05-24T01:33:51.008Z,17.12
2023-05-24T01:36:20.114Z,16.98
2023-05-24T01:38:48.118Z,16.94
2023-05-24T01:41:31.212Z,16.94
2023-05-24T01:44:23.478Z,16.83
2023-05-24T01:47:02.863Z,16.84
2023-05-24T01:49:37.998Z,16.89
2023-05-24T01:52:11.567Z,16.91
2023-05-24T01:54:42.687Z,16.85
2023-05-24T01:57:11.786Z,16.81
2023-05-24T01:59:43.438Z,16.73
2023-05-24T02:02:12.260Z,16.70
2023-05-24T02:04:40.846Z,16.67
2023-05-24T02:07:07.900Z,16.66
2023-05-24T02:09:34.856Z,16.65
2023-05-24T02:12:02.364Z,16.61
2023-05-24T02:14:29.723Z,16.62
2023-05-24T02:16:59.399Z,16.63
2023-05-24T02:19:27.029Z,16.58
2023-05-24T02:21:54.601Z,16.56
2023-05-24T02:24:23.363Z,16.56
2023-05-24T02:26:50.192Z,16.58
2023-05-24T02:29:17.264Z,16.58
2023-05-24T02:31:44.119Z,16.61
2023-05-24T02:34:10.917Z,16.62
2023-05-24T02:36:37.839Z,16.61
2023-05-24T02:39:05.073Z,16.57
2023-05-24T02:41:32.049Z,16.56
2023-05-24T02:43:58.910Z,16.61
2023-05-24T02:46:25.767Z,16.63
2023-05-24T02:48:52.620Z,16.65
2023-05-24T02:51:19.551Z,16.68
2023-05-24T02:53:47.189Z,16.66
2023-05-24T02:56:14.109Z,16.65
2023-05-24T02:58:41.797Z,16.66
2023-05-24T03:01:08.947Z,16.57
2023-05-24T03:03:36.716Z,16.59
2023-05-24T03:06:08.389Z,16.61
2023-05-24T03:08:37.418Z,16.58
2023-05-24T03:11:05.303Z,16.60
2023-05-24T03:13:32.201Z,16.60
2023-05-24T03:15:59.285Z,16.63
2023-05-24T03:18:26.370Z,16.60
2023-05-24T03:20:54.347Z,16.56
2023-05-24T03:23:21.171Z,16.45
2023-05-24T03:25:48.974Z,16.42
2023-05-24T03:28:16.066Z,16.43
2023-05-24T03:30:44.199Z,16.45
2023-05-24T03:33:11.396Z,16.49
2023-05-24T03:35:38.234Z,16.55
2023-05-24T03:38:05.185Z,16.56
2023-05-24T03:40:34.577Z,16.60
2023-05-24T03:43:07.395Z,16.61
2023-05-24T03:45:48.288Z,16.58
2023-05-24T03:48:15.653Z,16.56
2023-05-24T03:50:42.945Z,16.53
2023-05-24T03:53:09.983Z,16.55
2023-05-24T03:55:38.750Z,16.54
2023-05-24T03:58:07.951Z,16.43
2023-05-24T04:00:36.353Z,16.35
2023-05-24T04:03:03.502Z,16.35
2023-05-24T04:05:30.523Z,16.31
2023-05-24T04:07:57.480Z,16.36
2023-05-24T04:10:24.384Z,16.43
2023-05-24T04:12:51.369Z,16.47
2023-05-24T04:15:18.461Z,16.37
2023-05-24T04:17:46.586Z,16.32
2023-05-24T04:20:13.970Z,16.38
2023-05-24T04:22:41.480Z,16.41
2023-05-24T04:25:10.085Z,16.33
2023-05-24T04:27:37.423Z,16.24
2023-05-24T04:30:05.672Z,16.28
2023-05-24T04:32:32.934Z,16.29
2023-05-24T04:35:02.308Z,16.32
2023-05-24T04:37:31.849Z,16.34
2023-05-24T04:39:58.833Z,16.36
2023-05-24T04:42:27.410Z,16.52
2023-05-24T04:44:54.247Z,16.45
2023-05-24T04:47:24.156Z,16.60
2023-05-24T04:49:51.264Z,16.78
2023-05-24T04:52:18.719Z,16.90
2023-05-24T04:54:47.145Z,16.90
2023-05-24T04:57:14.019Z,16.91
2023-05-24T04:59:40.845Z,16.92
2023-05-24T05:02:08.436Z,16.73
2023-05-24T05:04:35.485Z,16.77
2023-05-24T05:07:03.786Z,16.85
2023-05-24T05:09:30.884Z,16.79
2023-05-24T05:11:58.422Z,16.86
2023-05-24T05:14:26.165Z,16.74
2023-05-24T05:16:53.130Z,16.88
2023-05-24T05:19:20.217Z,16.92
2023-05-24T05:21:47.153Z,16.96
2023-05-24T05:24:17.832Z,17.17
2023-05-24T05:26:45.256Z,17.47
2023-05-24T05:29:12.127Z,17.82
2023-05-24T05:31:39.864Z,18.18
2023-05-24T05:34:10.067Z,18.41
2023-05-24T05:36:41.111Z,18.59
2023-05-24T05:39:11.696Z,18.52
2023-05-24T05:41:40.053Z,18.88
2023-05-24T05:44:07.264Z,19.19
2023-05-24T05:46:34.171Z,20.43
2023-05-24T05:49:01.270Z,21.06
2023-05-24T05:51:28.784Z,20.70
2023-05-24T05:53:55.895Z,20.06
2023-05-24T05:56:22.754Z,19.77
2023-05-24T05:58:49.717Z,19.39
2023-05-24T06:01:17.029Z,19.60
2023-05-24T06:03:44.824Z,19.74
2023-05-24T06:06:11.999Z,19.97
2023-05-24T06:08:40.940Z,20.34
2023-05-24T06:11:07.845Z,20.75
2023-05-24T06:13:34.738Z,21.27
2023-05-24T06:16:01.755Z,22.71
2023-05-24T06:18:30.632Z,23.45
2023-05-24T06:20:57.684Z,23.02
2023-05-24T06:23:24.581Z,22.34
2023-05-24T06:25:51.451Z,21.82
2023-05-24T06:28:20.877Z,22.15
2023-05-24T06:30:48.361Z,22.10
2023-05-24T06:33:16.863Z,21.88
2023-05-24T06:35:43.952Z,22.30
2023-05-24T06:38:10.996Z,22.42
2023-05-24T06:40:38.378Z,21.45
2023-05-24T06:43:06.001Z,21.34
2023-05-24T06:45:33.617Z,22.69
2023-05-24T06:48:00.642Z,22.70
2023-05-24T06:50:27.696Z,23.28
2023-05-24T06:52:54.504Z,23.67
2023-05-24T06:55:21.639Z,23.53
2023-05-24T06:57:48.512Z,23.12
2023-05-24T07:00:15.764Z,22.60
2023-05-24T07:02:43.308Z,22.96
2023-05-24T07:05:13.399Z,23.92
2023-05-24T07:07:41.266Z,25.12
2023-05-24T07:10:09.162Z,24.98
2023-05-24T07:12:40.541Z,24.79
2023-05-24T07:15:08.787Z,24.57
2023-05-24T07:17:35.948Z,24.44
2023-05-24T07:20:03.199Z,23.78
2023-05-24T07:22:32.830Z,23.54
2023-05-24T07:24:59.661Z,23.54
2023-05-24T07:27:26.530Z,24.53
2023-05-24T07:29:53.413Z,25.04
2023-05-24T07:32:20.342Z,25.37
2023-05-24T07:34:47.342Z,25.95
2023-05-24T07:37:14.283Z,26.16
2023-05-24T07:39:41.170Z,25.61
2023-05-24T07:42:08.084Z,25.66
2023-05-24T07:44:35.425Z,25.75
2023-05-24T07:47:03.058Z,26.22
2023-05-24T07:49:30.082Z,26.54
2023-05-24T07:51:59.628Z,26.68
2023-05-24T07:54:27.022Z,27.09
2023-05-24T07:56:57.753Z,27.18
2023-05-24T07:59:24.771Z,27.33
2023-05-24T08:01:52.740Z,26.76
2023-05-24T08:04:21.705Z,25.73
2023-05-24T08:06:48.585Z,25.34
2023-05-24T08:09:15.470Z,25.24
2023-05-24T08:11:42.597Z,24.97
2023-05-24T08:14:09.882Z,25.14
2023-05-24T08:16:36.802Z,25.55
2023-05-24T08:19:03.801Z,25.57
2023-05-24T08:21:32.129Z,25.44
2023-05-24T08:24:00.118Z,25.61
2023-05-24T08:26:27.209Z,26.02
2023-05-24T08:28:54.899Z,26.02
2023-05-24T08:31:22.384Z,25.88
2023-05-24T08:33:51.160Z,26.14
2023-05-24T08:36:18.775Z,26.08
2023-05-24T08:38:46.933Z,25.76
2023-05-24T08:41:13.810Z,25.35
2023-05-24T08:44:38.884Z,25.10
2023-05-24T08:47:52.814Z,25.84
2023-05-24T08:50:20.521Z,25.26
2023-05-24T08:52:47.994Z,24.11
2023-05-24T08:55:15.782Z,23.60
2023-05-24T08:57:44.865Z,22.70
2023-05-24T09:00:13.107Z,22.35
2023-05-24T09:02:42.335Z,22.24
2023-05-24T09:05:12.471Z,22.49
2023-05-24T09:07:40.206Z,23.08
2023-05-24T09:10:09.475Z,23.11
2023-05-24T09:12:39.511Z,23.04
2023-05-24T09:15:08.203Z,23.15
2023-05-24T09:17:36.951Z,22.93
2023-05-24T09:20:09.046Z,22.84
2023-05-24T09:22:40.851Z,23.04
2023-05-24T09:25:09.912Z,22.49
2023-05-24T09:27:37.719Z,22.82
2023-05-24T09:30:08.887Z,22.88
2023-05-24T09:32:36.054Z,23.52
2023-05-24T09:35:03.167Z,23.85
2023-05-24T09:37:33.006Z,23.63
2023-05-24T09:40:00.370Z,23.59
2023-05-24T09:42:28.940Z,23.09
2023-05-24T09:45:08.972Z,22.80
2023-05-24T09:47:37.739Z,23.10
2023-05-24T09:50:07.088Z,23.02
2023-05-24T09:52:39.177Z,23.12
2023-05-24T09:55:16.737Z,23.24
2023-05-24T09:58:04.388Z,23.19
2023-05-24T10:00:40.256Z,23.20
2023-05-24T10:03:11.181Z,22.99
2023-05-24T10:05:44.742Z,22.59
2023-05-24T10:08:14.605Z,22.44
2023-05-24T10:10:44.121Z,22.00
2023-05-24T10:13:12.859Z,22.00
2023-05-24T10:15:39.924Z,21.99
2023-05-24T10:18:10.671Z,22.05
2023-05-24T10:20:41.656Z,22.05
2023-05-24T10:23:10.949Z,21.92
2023-05-24T10:25:42.047Z,21.86
2023-05-24T10:28:13.493Z,22.14
2023-05-24T10:31:03.384Z,22.56
2023-05-24T10:33:32.520Z,22.91
2023-05-24T10:35:59.870Z,22.67
2023-05-24T10:38:26.891Z,22.58
2023-05-24T10:40:54.060Z,22.51
2023-05-24T10:43:22.783Z,22.51
2023-05-24T10:45:51.267Z,22.60
2023-05-24T10:48:24.337Z,23.09
2023-05-24T10:50:51.251Z,23.43
2023-05-24T10:53:20.279Z,23.50
2023-05-24T10:55:53.220Z,23.20
2023-05-24T10:58:20.966Z,22.78
2023-05-24T11:00:51.419Z,22.59
2023-05-24T11:03:24.620Z,22.77
2023-05-24T11:05:54.663Z,22.99
2023-05-24T11:08:31.945Z,22.83
2023-05-24T11:11:24.611Z,22.48
2023-05-24T11:13:59.707Z,22.35
2023-05-24T11:16:40.188Z,22.26
2023-05-24T11:19:30.748Z,21.96
2023-05-24T11:21:59.172Z,21.86
2023-05-24T11:24:27.648Z,21.50
2023-05-24T11:26:54.986Z,21.30
2023-05-24T11:29:23.147Z,21.00
2023-05-24T11:32:08.015Z,20.77
2023-05-24T11:34:35.195Z,20.89
2023-05-24T11:37:03.449Z,20.87
2023-05-24T11:39:31.946Z,20.86
2023-05-24T11:41:59.551Z,20.82
2023-05-24T11:44:28.059Z,20.84
2023-05-24T11:46:59.551Z,21.01
2023-05-24T11:49:26.929Z,21.41
2023-05-24T11:51:58.105Z,21.58
2023-05-24T11:54:26.197Z,21.45
2023-05-24T11:56:54.401Z,21.18
2023-05-24T11:59:26.610Z,21.04
2023-05-24T12:02:06.666Z,21.04
2023-05-24T12:04:34.951Z,21.16
2023-05-24T12:07:03.162Z,21.19
2023-05-24T12:09:30.702Z,21.30
2023-05-24T12:11:58.833Z,21.46
2023-05-24T12:14:31.274Z,21.64
2023-05-24T12:16:59.168Z,21.42
2023-05-24T12:19:33.658Z,21.41
2023-05-24T12:22:07.196Z,21.61
2023-05-24T12:24:35.547Z,21.99
2023-05-24T12:27:07.843Z,22.05
2023-05-24T12:29:37.866Z,21.86
2023-05-24T12:32:05.415Z,21.66
2023-05-24T12:34:33.738Z,21.45
2023-05-24T12:37:01.335Z,21.47
2023-05-24T12:39:35.114Z,21.48
2023-05-24T12:42:03.470Z,21.35
2023-05-24T12:44:35.335Z,21.30
2023-05-24T12:47:03.884Z,21.30
2023-05-24T12:49:32.577Z,21.52
2023-05-24T12:52:00.232Z,21.81
2023-05-24T12:54:28.295Z,22.12
2023-05-24T12:56:57.826Z,22.40
2023-05-24T12:59:26.065Z,22.76
2023-05-24T13:01:53.496Z,22.89
2023-05-24T13:04:24.407Z,22.71
2023-05-24T13:06:52.904Z,22.56
2023-05-24T13:09:22.663Z,22.48
2023-05-24T13:11:50.853Z,22.15
2023-05-24T13:14:19.210Z,21.58
2023-05-24T13:16:46.375Z,21.37
2023-05-24T13:19:13.837Z,21.24
2023-05-24T13:21:41.012Z,20.97
2023-05-24T13:24:08.808Z,20.97
2023-05-24T13:26:39.201Z,20.87
2023-05-24T13:31:41.371Z,20.87
2023-05-24T13:34:09.485Z,20.75
2023-05-24T13:36:38.253Z,20.55
2023-05-24T13:41:41.662Z,20.78
2023-05-24T13:44:10.320Z,21.11
2023-05-24T13:46:38.669Z,21.10
2023-05-24T13:49:06.786Z,21.11
2023-05-24T13:51:34.482Z,21.14
2023-05-24T13:54:05.022Z,21.05
2023-05-24T13:56:34.347Z,21.14
2023-05-24T13:59:02.828Z,21.07
2023-05-24T14:01:32.750Z,21.21
2023-05-24T14:04:00.951Z,21.29
2023-05-24T14:06:29.061Z,21.43
2023-05-24T14:08:57.789Z,21.55
2023-05-24T14:11:26.362Z,21.75
2023-05-24T14:16:24.878Z,21.68
2023-05-24T14:18:51.990Z,21.47
2023-05-24T14:21:21.743Z,21.27
2023-05-24T14:23:49.636Z,21.34
2023-05-24T14:26:17.957Z,21.19
2023-05-24T14:28:44.905Z,21.15
2023-05-24T14:31:11.828Z,21.11
2023-05-24T14:33:40.259Z,21.15
2023-05-24T14:36:09.224Z,21.27
2023-05-24T14:38:36.639Z,21.22
2023-05-24T14:41:03.745Z,21.39
2023-05-24T14:43:32.244Z,21.17
2023-05-24T14:46:00.669Z,21.23
2023-05-24T14:48:28.361Z,21.09
2023-05-24T14:50:55.778Z,21.10
2023-05-24T14:53:26.037Z,21.05
2023-05-24T14:55:55.129Z,21.01
2023-05-24T14:58:22.775Z,21.06
2023-05-24T15:00:50.143Z,21.14
2023-05-24T15:03:17.366Z,21.21
2023-05-24T15:05:44.504Z,21.28
2023-05-24T15:08:13.217Z,21.31
2023-05-24T15:10:40.741Z,21.36
2023-05-24T15:13:08.225Z,21.47
2023-05-24T15:15:35.024Z,21.29
2023-05-24T15:18:01.998Z,21.37
2023-05-24T15:20:29.012Z,21.29
2023-05-24T15:22:56.122Z,21.40
2023-05-24T15:25:23.056Z,21.36
2023-05-24T15:27:50.025Z,21.23
2023-05-24T15:30:26.943Z,21.24
2023-05-24T15:32:55.942Z,21.20
2023-05-24T15:35:23.130Z,21.23
2023-05-24T15:37:50.408Z,21.38
2023-05-24T15:40:18.808Z,21.22
2023-05-24T15:42:47.384Z,21.27
2023-05-24T15:45:14.257Z,21.28
2023-05-24T15:47:41.078Z,21.30
2023-05-24T15:50:35.364Z,21.17
2023-05-24T15:53:12.168Z,21.09
2023-05-24T15:55:39.119Z,21.16
2023-05-24T15:58:06.012Z,21.12
2023-05-24T16:00:33.087Z,21.09
2023-05-24T16:03:00.337Z,21.11
2023-05-24T16:05:28.384Z,21.06
2023-05-24T16:07:55.529Z,20.98
2023-05-24T16:10:22.376Z,21.03
2023-05-24T16:12:55.585Z,21.11
2023-05-24T16:15:22.496Z,21.12
2023-05-24T16:17:49.351Z,21.07
2023-05-24T16:20:16.318Z,21.01
2023-05-24T16:22:51.366Z,20.77
2023-05-24T16:25:18.411Z,20.78
2023-05-24T16:27:45.263Z,20.65
2023-05-24T16:30:12.459Z,20.58
2023-05-24T16:33:08.377Z,20.56
2023-05-24T16:35:37.432Z,20.57
2023-05-24T16:38:04.775Z,20.59
2023-05-24T16:40:31.692Z,20.57
2023-05-24T16:42:58.516Z,20.60
2023-05-24T16:45:25.512Z,20.53
2023-05-24T16:47:52.651Z,20.51
2023-05-24T16:50:19.606Z,20.64
2023-05-24T16:52:46.471Z,20.53
2023-05-24T16:55:14.891Z,20.50
2023-05-24T16:57:42.136Z,20.38
2023-05-24T17:00:10.029Z,20.37
2023-05-24T17:02:37.445Z,20.38
2023-05-24T17:05:04.440Z,20.42
2023-05-24T17:07:31.991Z,20.26
2023-05-24T17:09:59.095Z,20.24
2023-05-24T17:12:26.084Z,20.21
2023-05-24T17:14:52.943Z,20.22
2023-05-24T17:17:19.924Z,20.14
2023-05-24T17:19:46.982Z,20.10
2023-05-24T17:22:14.318Z,20.01
2023-05-24T17:24:41.565Z,19.94
2023-05-24T17:27:08.535Z,19.95
2023-05-24T17:29:37.621Z,19.95
2023-05-24T17:32:05.882Z,19.79
2023-05-24T17:34:32.885Z,19.82
2023-05-24T17:37:00.136Z,19.82
2023-05-24T17:39:27.057Z,19.74
2023-05-24T17:41:53.862Z,19.67
2023-05-24T17:44:21.397Z,19.57
2023-05-24T17:46:48.415Z,19.54
2023-05-24T17:49:18.507Z,19.51
2023-05-24T17:51:46.922Z,19.53
2023-05-24T17:54:14.871Z,19.51
2023-05-24T17:56:41.805Z,19.36
2023-05-24T17:59:10.035Z,19.30
2023-05-24T18:01:36.991Z,19.26
2023-05-24T18:04:05.153Z,19.19
2023-05-24T18:06:34.041Z,19.15
2023-05-24T18:09:03.904Z,19.12
2023-05-24T18:11:31.083Z,19.12
2023-05-24T18:14:00.449Z,19.02
2023-05-24T18:16:27.644Z,18.95
2023-05-24T18:18:54.926Z,18.86
2023-05-24T18:21:22.046Z,18.85
2023-05-24T18:23:49.325Z,18.81
2023-05-24T18:26:16.205Z,18.74
2023-05-24T18:28:43.996Z,18.74
2023-05-24T18:31:10.981Z,18.69
2023-05-24T18:33:38.451Z,18.63
2023-05-24T18:36:05.883Z,18.58
2023-05-24T18:38:36.675Z,18.54
2023-05-24T18:41:09.376Z,18.44
2023-05-24T18:43:36.507Z,18.40
2023-05-24T18:46:03.366Z,18.40
2023-05-24T18:48:30.197Z,18.34
2023-05-24T18:50:57.192Z,18.33
2023-05-24T18:53:25.728Z,18.29
2023-05-24T18:55:52.566Z,18.29
2023-05-24T18:58:19.453Z,18.28
2023-05-24T19:00:46.490Z,18.17
2023-05-24T19:03:13.515Z,18.14
2023-05-24T19:05:43.555Z,18.07
2023-05-24T19:08:11.157Z,17.99
2023-05-24T19:10:37.992Z,17.94
2023-05-24T19:13:05.997Z,17.91
2023-05-24T19:15:34.750Z,17.84
2023-05-24T19:18:01.825Z,17.77
2023-05-24T19:20:29.997Z,17.75
2023-05-24T19:22:56.820Z,17.73
2023-05-24T19:25:23.663Z,17.69
2023-05-24T19:27:59.178Z,17.64
2023-05-24T19:30:27.596Z,17.58
2023-05-24T19:32:54.785Z,17.55
2023-05-24T19:35:21.725Z,17.52
2023-05-24T19:37:48.588Z,17.47
2023-05-24T19:40:15.654Z,17.47
2023-05-24T19:42:42.469Z,17.39
2023-05-24T19:45:09.787Z,17.36
2023-05-24T19:47:36.775Z,17.33
2023-05-24T19:50:03.781Z,17.28
2023-05-24T19:52:30.810Z,17.26
2023-05-24T19:54:57.721Z,17.28
2023-05-24T19:57:24.587Z,17.27
2023-05-24T19:59:51.743Z,17.23
2023-05-24T20:02:18.590Z,17.22
2023-05-24T20:04:45.391Z,17.19
2023-05-24T20:07:12.383Z,17.17
2023-05-24T20:09:39.501Z,17.17
2023-05-24T20:12:06.544Z,17.15
2023-05-24T20:14:33.954Z,17.12
2023-05-24T20:17:01.436Z,17.13
2023-05-24T20:19:28.747Z,17.05
2023-05-24T20:21:55.685Z,17.02
2023-05-24T20:24:24.977Z,17.01
2023-05-24T20:26:52.065Z,17.00
2023-05-24T20:29:18.945Z,16.97
2023-05-24T20:31:47.165Z,17.00
2023-05-24T20:34:14.220Z,16.98
2023-05-24T20:36:43.574Z,16.95
2023-05-24T20:39:10.863Z,16.95
2023-05-24T20:41:37.708Z,16.90
2023-05-24T20:44:04.622Z,16.89
2023-05-24T20:46:31.812Z,16.85
2023-05-24T20:48:58.929Z,16.90
2023-05-24T20:51:26.000Z,16.78
2023-05-24T20:53:53.392Z,16.73
2023-05-24T20:56:21.428Z,16.71
2023-05-24T20:58:52.751Z,16.70
2023-05-24T21:01:20.861Z,16.66
2023-05-24T21:03:47.885Z,16.61
2023-05-24T21:06:15.041Z,16.59
2023-05-24T21:08:43.072Z,16.53
2023-05-24T21:11:11.236Z,16.46
2023-05-24T21:13:38.248Z,16.41
2023-05-24T21:16:05.558Z,16.37
2023-05-24T21:18:33.516Z,16.34
2023-05-24T21:21:01.006Z,16.27
2023-05-24T21:23:27.937Z,16.24
2023-05-24T21:25:54.899Z,16.22
2023-05-24T21:28:21.956Z,16.19
2023-05-24T21:30:48.822Z,16.18
2023-05-24T21:33:16.151Z,16.16
2023-05-24T21:35:43.219Z,16.11
2023-05-24T21:38:10.259Z,16.09
2023-05-24T21:40:37.167Z,16.02
2023-05-24T21:43:05.348Z,15.98
2023-05-24T21:45:34.699Z,15.93
2023-05-24T21:48:01.608Z,15.90
2023-05-24T21:50:29.108Z,15.85
2023-05-24T21:52:55.940Z,15.80
2023-05-24T21:55:22.779Z,15.76
2023-05-24T21:57:49.717Z,15.69
2023-05-24T22:00:17.188Z,15.64
2023-05-24T22:03:00.670Z,15.58
2023-05-24T22:05:28.081Z,15.57
2023-05-24T22:07:55.261Z,15.54
2023-05-24T22:10:22.128Z,15.50
2023-05-24T22:12:49.140Z,15.47
2023-05-24T22:15:16.256Z,15.45
2023-05-24T22:17:44.581Z,15.40
2023-05-24T22:20:12.090Z,15.40
2023-05-24T22:22:48.510Z,15.36
2023-05-24T22:25:19.468Z,15.33
2023-05-24T22:27:51.357Z,15.28
2023-05-24T22:30:23.933Z,15.27
2023-05-24T22:32:51.324Z,15.27
2023-05-24T22:35:18.284Z,15.27
2023-05-24T22:37:45.156Z,15.24
2023-05-24T22:40:12.493Z,15.22
2023-05-24T22:42:39.343Z,15.18
2023-05-24T22:45:06.877Z,15.12
2023-05-24T22:47:33.993Z,15.10
2023-05-24T22:50:02.293Z,15.06
2023-05-24T22:52:33.927Z,15.00
2023-05-24T22:55:04.234Z,14.96
2023-05-24T22:57:32.992Z,14.97
2023-05-24T22:59:59.804Z,14.95
2023-05-24T23:02:29.203Z,14.96
2023-05-24T23:04:56.350Z,14.97
2023-05-24T23:07:23.507Z,14.95
2023-05-24T23:09:50.299Z,14.91
2023-05-24T23:12:20.343Z,14.89
2023-05-24T23:14:47.212Z,14.89
2023-05-24T23:17:15.161Z,14.86
2023-05-24T23:19:44.914Z,14.85
2023-05-24T23:22:14.101Z,14.80
2023-05-24T23:24:42.678Z,14.78
2023-05-24T23:27:10.045Z,14.78
2023-05-24T23:29:39.084Z,14.73
2023-05-24T23:32:08.046Z,14.71
2023-05-24T23:34:35.345Z,14.67
2023-05-24T23:37:03.194Z,14.61
2023-05-24T23:39:30.239Z,14.56
2023-05-24T23:41:57.339Z,14.56
2023-05-24T23:44:24.165Z,14.54
2023-05-24T23:46:52.872Z,14.54
2023-05-24T23:49:20.218Z,14.55
2023-05-24T23:51:47.240Z,14.50
2023-05-24T23:54:19.066Z,14.50
2023-05-24T23:56:46.345Z,14.52
2023-05-24T23:59:13.140Z,14.53
